Войти Поиск

Статистика игрока

1,872 игроков отображено, всего - 2,002

Последнее обновление: 2019-10-17 16:00:03 MSK

Ранг

Игрок

Убийств

Смертей

Уб/См

УГ

УГ в %

Время онлайн

Активность

Навык

211 Разница: +1 tr CiciKusSever31 360 368 0.98 183 50.83% 12:38:48 903.90 без изменений
171 Разница: -2 dz David 362 360 1.01 113 31.22% 12:32:47 1092.57 Разница: +11.75
877 Разница: +1 ve LAFF 12 60 0.20 32 266.67% 12:32:37 197.62 Разница: +19.31
201 Разница: -1 hu Anna 317 352 0.90 136 42.90% 12:29:02 950.25 Разница: +97.13
256 Разница: +1 mk MartinDimeski 275 437 0.63 118 42.91% 12:22:07 763.97 Разница: -4.16
152 Разница: +1 dz The Criminal 492 301 1.63 242 49.19% 12:19:49 1155.17 Разница: +160.77
150 Разница: -1 ru Enjoy 687 285 2.41 735 106.99% 12:19:03 1163.58 без изменений
529 Разница: -1 us chintan.vithlani@gmail.com 141 346 0.41 183 129.79% 12:03:24 373.55 без изменений
703 Разница: +1 ma Home Sweet Home 88 403 0.22 33 37.50% 11:53:11 270.45 Разница: +11.58
141 Разница: -1 es Llauraor 467 366 1.28 199 42.61% 11:50:17 1196.10 Разница: +9.47
374 Разница: -1 gb SSBB 281 351 0.80 453 161.21% 11:44:07 534.33 без изменений
427 Разница: -2 hr SARA 99 278 0.36 63 63.64% 11:35:32 465.80 Разница: +10.79
599 Разница: -3 th admin 43 92 0.47 124 288.37% 11:25:08 322.96 без изменений
230 Разница: -1 mk ᴀ ʀ ɢ ᴏ s 326 318 1.03 231 70.86% 11:17:59 856.84 Разница: +28.57
457 Разница: -1 ca fafa 77 143 0.54 197 255.84% 11:11:16 434.37 Разница: +14.32
454 Разница: -2 ir arbab 113 295 0.38 61 53.98% 11:06:01 438.29 Разница: +38.48
554 Разница: -1 tn 1 0 3 106 345 0.31 53 50.00% 11:04:53 359.98 Разница: +5.42
833 Разница: +1 in A 163 262 0.62 314 192.64% 11:03:02 211.37 Разница: -1.08
321 Разница: -1 pl User 202 369 0.55 117 57.92% 10:48:16 628.71 Разница: -49.21
208 Разница: +1 de KlinGonE 1stGeneRatioN 603 236 2.56 591 98.01% 10:40:44 920.26 без изменений
274 Разница: -1 me CR4ZY^An3$ 238 210 1.13 383 160.92% 10:40:26 723.05 Разница: +2.00
155 Разница: -1 de Cleaner 323 195 1.66 183 56.66% 10:32:55 1135.03 Разница: -3.50
762 Разница: +1 ru Осминог 53 90 0.59 66 124.53% 10:28:46 242.33 Разница: +4.41
444 Разница: -2 cz volume cz 185 209 0.89 326 176.22% 10:02:16 446.08 Разница: +52.68
361 Разница: -1 jo NoBaNi 151 214 0.71 141 93.38% 09:59:46 566.07 Разница: -0.11
363 Разница: -1 gr LEFTERIS_GREECE 144 234 0.62 141 97.92% 09:57:14 562.12 Разница: +6.86
229 Разница: -1 al E Dello Spirito Santos 249 326 0.76 104 41.77% 09:53:10 858.22 Разница: +41.96
83 Разница: -1 gr Zephiov` 598 237 2.52 303 50.67% 09:49:32 1589.65 Разница: +13.09
277 Разница: -1 ru О.У.К.Б 232 298 0.78 116 50.00% 09:42:12 717.75 без изменений
185 Разница: +1 dz anouch mafia 298 219 1.36 109 36.58% 09:37:08 1027.04 Разница: +6.72
191 Разница: +1 gr QuavoHuncho 397 249 1.59 305 76.83% 09:33:07 1003.11 Разница: +34.49
1308 Разница: -2 ru gamer 23 89 0.26 38 165.22% 09:30:56 120.52 Разница: -7.77
169 Разница: -1 rs SPEED 91 396 326 1.21 182 45.96% 09:30:20 1101.38 Разница: +1.39
325 Разница: -1 ir Newbie 187 141 1.33 314 167.91% 09:28:30 624.43 Разница: -6.00
279 Разница: -1 my Mike 299 244 1.23 298 99.67% 09:27:58 712.35 Разница: -2.00
142 Разница: -1 tr Fee* 369 248 1.49 123 33.33% 09:25:23 1196.04 без изменений
398 Разница: -1 pk Ibtihaj 155 322 0.48 59 38.06% 09:22:37 503.16 без изменений
177 Разница: -2 dz 39.gif ꧁༒Crazy_King༒꧂Vip 341 215 1.59 126 36.95% 09:21:53 1060.12 Разница: +105.55
287 Разница: -2 dz aziz 218 331 0.66 87 39.91% 09:21:51 702.62 Разница: +12.36
376 Разница: -1 hu misi_kator 155 136 1.14 232 149.68% 09:21:31 531.32 без изменений
497 Разница: -1 fr J 184 279 0.66 268 145.65% 09:16:29 406.84 Разница: -6.93
285 Разница: -2 by .LOS 224 293 0.76 92 41.07% 09:16:25 707.27 Разница: +8.11
423 Разница: -2 dz badis 90 121 297 0.41 69 57.02% 09:13:19 469.03 Разница: -0.53
268 Разница: +1 dz @Nii 209 265 0.79 89 42.58% 09:10:07 737.58 Разница: +48.00
243 Разница: -1 hu Boby913 221 287 0.77 133 60.18% 09:09:58 830.39 Разница: +56.66
302 Разница: +1 ir Newbie 180 211 0.85 142 78.89% 09:04:24 671.20 без изменений
367 Разница: -1 ps MOGRAM:) 142 270 0.53 47 33.10% 09:03:57 548.89 Разница: -2.00
838 Разница: +1 tr ugurndrr 45 118 0.38 73 162.22% 09:01:50 210.38 Разница: -20.78
118 Разница: -1 lv test 447 293 1.53 148 33.11% 09:01:35 1318.71 без изменений
181 Разница: -1 dz Kacem 388 300 1.29 139 35.82% 08:58:13 1048.39 Разница: +11.12
227 Разница: -1 de Terror Duck 224 161 1.39 261 116.52% 08:56:17 859.70 Разница: -2.57
464 Разница: -1 ec KRISTOFER 73 57 1.28 115 157.53% 08:51:27 428.77 без изменений
518 Разница: -1 gr Stauros 43 75 0.57 98 227.91% 08:47:03 380.75 Разница: +102.64
237 Разница: -1 ru <<< Palych >>> 232 245 0.95 80 34.48% 08:46:51 840.22 Разница: +141.45
730 Разница: +1 ua igothooooooooo 74 244 0.30 65 87.84% 08:41:35 257.81 Разница: -5.67
48 Разница: -1 hu asd 752 203 3.70 277 36.84% 08:36:04 2039.73 Разница: +51.95
669 Разница: +1 hr Korisnik 86 129 0.67 89 103.49% 08:31:01 286.03 Разница: +20.40
404 Разница: -5 ru Dalas Korben 104 246 0.42 45 43.27% 08:18:17 492.33 Разница: -22.34
476 Разница: -1 gr EnergyNet 108 177 0.61 95 87.96% 08:15:06 421.28 без изменений
228 Разница: -1 ch Your name 219 212 1.03 107 48.86% 08:08:04 859.57 Разница: +45.39
856 Разница: +1 ir raki 29 58 0.50 98 337.93% 08:05:28 205.48 без изменений
1046 Разница: +1 mx Valokbron47 37 41 0.90 125 337.84% 08:04:04 157.73 Разница: -0.21
424 Разница: -2 si GURU 97 253 0.38 38 39.18% 07:56:31 468.22 Разница: -0.23
304 Разница: +1 rs kun10 220 248 0.89 112 50.91% 07:55:07 670.58 Разница: -1.45
172 Разница: -2 se Moukoko 351 244 1.44 176 50.14% 07:53:59 1091.16 без изменений
504 Разница: -1 user 59 121 0.49 63 106.78% 07:52:56 398.54 Разница: +77.56
194 Разница: -1 ma MR.Discovery 261 200 1.30 71 27.20% 07:52:39 981.81 Разница: +44.63
431 Разница: -2 rs Mrki 135 270 0.50 48 35.56% 07:46:30 458.29 Разница: +7.40
335 Разница: -1 de Vindar 155 276 0.56 57 36.77% 07:44:01 610.68 Разница: +1.33
389 Разница: +1 hr EntoD 121 209 0.58 44 36.36% 07:42:13 511.77 Разница: -4.41
123 Разница: -1 pl Triada|bybluk 402 196 2.05 187 46.52% 07:41:52 1278.87 Разница: -8.20
281 Разница: -1 tn AdeM101 160 269 0.59 45 28.12% 07:40:49 710.67 Разница: +0.25
579 Разница: -1 dz Tsm8 94 147 0.64 137 145.74% 07:40:02 338.95 Разница: +15.10
498 Разница: -1 es Oxid 124 139 0.89 129 104.03% 07:39:00 404.57 Разница: +48.31
147 Разница: +26 bg (1)Newbie 353 212 1.67 82 23.23% 07:36:41 1175.12 Разница: +99.54
395 Разница: +1 it pino87451 137 221 0.62 53 38.69% 07:32:33 509.42 Разница: -0.31
310 Разница: -1 rs Razbijac_Muda 174 214 0.81 61 35.06% 07:18:54 661.09 Разница: +39.53
187 Разница: +1 pt devious.gif Phax 308 223 1.38 147 47.73% 07:18:38 1019.52 Разница: +14.58
235 Разница: -1 bg Legolas 249 223 1.12 88 35.34% 07:17:59 844.45 Разница: -2.88
533 Разница: -1 dz 2019 72 126 0.57 62 86.11% 07:05:56 371.05 Разница: +44.27
73 Разница: -1 de AJ. 513 175 2.93 321 62.57% 07:04:49 1691.87 Разница: +191.16
160 Разница: -2 fi jäätelötötterö 272 194 1.40 97 35.66% 06:57:54 1120.48 Разница: +77.89
350 Разница: -2 ir omid 170 259 0.66 99 58.24% 06:57:07 581.27 без изменений
436 Разница: -2 ir Mahdiscorpio 108 121 0.89 94 87.04% 06:55:51 454.44 Разница: +1.29
450 Разница: -2 ir IMAC2 139 204 0.68 186 133.81% 06:54:27 441.07 Разница: +34.85
226 Разница: -1 it Lucifer 201 251 0.80 87 43.28% 06:49:48 861.65 Разница: +27.62
317 Разница: -1 gb Torque 173 178 0.97 188 108.67% 06:29:17 638.15 Разница: +104.30
487 Разница: -1 sk SLIYx 95 210 0.45 36 37.89% 06:26:07 410.92 Разница: -4.64
524 Разница: -1 hu REVOLUTiON 64 90 0.71 94 146.88% 06:24:05 376.06 Разница: -2.55
988 Разница: +1 dz zizo 17 76 0.22 45 264.71% 06:15:26 169.76 без изменений
571 Разница: -1 tn SAI-J 68 207 0.33 35 51.47% 06:15:00 345.53 Разница: -2.18
198 Разница: -1 ro geny 215 223 0.96 100 46.51% 06:11:50 954.94 Разница: +72.82
166 Разница: -1 es Kimera! Q`frao! 307 174 1.76 115 37.46% 06:11:31 1104.83 Разница: -8.40
761 Разница: +1 dz Gladiator 51 155 0.33 49 96.08% 06:10:43 243.52 Разница: +3.44
485 Разница: -1 de kuli3000 76 110 0.69 40 52.63% 06:10:15 412.17 Разница: -29.92
509 Разница: -1 gt cit1zen 64 107 0.60 91 142.19% 06:08:22 392.06 Разница: +44.08
1507 Разница: -2 ar joni07 16 28 0.57 99 618.75% 06:06:22 98.45 без изменений
723 Разница: +1 dz user-info 37 82 0.45 50 135.14% 06:06:01 261.01 Разница: +10.27
247 Разница: +1 ir parsa 190 184 1.03 43 22.63% 06:04:57 812.57 Разница: +62.95
1385 Разница: +1 co Migl1232 10 30 0.33 56 560.00% 06:04:24 111.94 без изменений